Seymour Johnson Air Force Base
KGSB : now visible

Airfield :











YOU CAN JOIN US ON...

 
LOGIN :

Register | Disclaimer

   EN    FR    IT 

 









Legend :    VFR   Marginal VFR   IFR   Intensive IFR   Very Intensive IFR
Visi :
Ceiling :
>= 8 km
>= 3000ft
5 to 8 km
1000 to 3000 ft
1500m to 5 km
500 to 1000 ft
800 to 1500m
200 to 500 ft
< 800m
< 200 ft
Symbols :   Thunderstorms  Fog  Heavy snow  Heavy precipitations  Wind > 20 kt






- Airport Elevation : 109 ft


KGSB - Seymour Johnson Air Force Base

CURRENT METAR :
  • 021155Z 00000KT 10SM FEW250 M03/M05 A3054 RMK AO2A SLP347 T10321051 11013 21032 52013 $

EXPIRED METARs :
  • 021055Z 00000KT 10SM CLR M03/M05 A3052 RMK AO2A SLP340 T10281048 $
  • 020955Z 00000KT 10SM CLR M03/M05 A3051 RMK AO2A SLP336 T10281048 $

TAF AMD TAF KGSB
Valid from the 02 at 12:00 until the 03 at 11:00 UTC


021200Z 0212/0311 VRB06KT 9999 FEW250 QNH3050INS
BECMG 0220/0221 09009KT 9999 SCT030 BKN100 QNH3044INS
BECMG 0306/0307 18009KT 9999 BKN100 BKN200 QNH3035INS TX13/0221Z TNM03/0212Z
KZDC FIR / North America



MET'MAP, your aeronautical weather chart ! - Copyright ORBIFLY December 2007 - Disclaimer

ORBIFLY MET'MAP TEAM :

Programming & Development : Alexandra Zaïnal
Original concept : Baudouin d'Aumeries
Technical & hardware support : Manuel Goepfert
Assistance : Marc-Olivier Méhu




SOURCES & CREDITS :

   NOAA       Earth
Advisory